Pagrindinis puslapis
METAR-TAF:

METAR-TAF

Oro uostai :

Floresas, Gvatemala

platuma: 16-54-50N, ilguma: 089-51-59W, Aukštis: 118 m

Dabartinis oras

Ataskaita buvo paskelbta 33 minutes, ne 03:00 UTC
Vėjas 4 kt iš Rytų/Šiaurės Rytų
Temperatūra 30°C
Drėgmė 79%
Slėgis 1012 hPa
Matomumas: 9000 m
Su prošvaistėmis ne aukštis 10000 ft
migla,

METAR: MGMM 200300Z 06004KT 9000 BKN100 30/26 Q1012 A2988 HZ

Laikas: 21:33 (03:33 UTC)

Prognozė

Ataskaita buvo paskelbta 4 valandos ir 33 minutes, ne 23:00 UTC
Prognozė galioja nuo 20 metu 00 UTC su 20 metu 24 UTC
Vėjas kt iš Šiaurės
Matomumas 10 km arba daugiau
Mažai debesys ne aukštis 1600 ft
Su prošvaistėmis ne aukštis 9000 ft
Tapsmas
nuo 20 metu 06 UTC su 20 metu 08 UTC
Tapsmas
nuo 20 metu 15 UTC su 20 metu 17 UTC
Vėjas 8 kt iš Rytų
Mažai debesys ne aukštis 1800 ft
Tapsmas
nuo 20 metu 20 UTC su 20 metu 22 UTC
Išsisklaidę debesys ne aukštis 2200 ft

TAF: MGMM 192300Z 2000/2024 00000KT 9999 FEW016 BKN090 TX36/2020Z TN23/2012Z BECMG 2006/2008 BKNT012 BECMG 2015/2017 08008KT FEW018 BECMG 2020/2022 SCT022

Orai ataskaitas ir orų prognozės (METAR, TAF).

turimą stotys yra geltonos ir raudonos taškus žemėlapyje.

Perkelti pele per norėdami pamatyti stoties vardą.

Tada spustelėkite, norėdami matyti oro stebėjimo ir prognozės.

Norėdami pakeisti žemėlapį: spustelėkite ant žalios mygtukų su juodo kryžiaus žemyn,; žalią mygtuką su brūkšneliu, jei norite nutolinti; arba žalių rodyklių gretimoms žemėlapius.


METAR-TAF: